KPPQ

Pittsfield Penstone Municipal Airport

Pittsfield, Illinois, USA
METAR KPPQ 190655Z AUTO 21009KT 10SM CLR 01/M07 A3006 RMK AO2 T00121070
Observed Flight Rules
Jan-19 @ 06:55 UTC (21 minutes ago) Visual Flight Rules
Wind Visibility Clouds
210° at 9 knots 10 miles
  • Clear skies
Temperatures Readings
Current 1°C / 34°F
Dewpoint -7°C / 19°F
Humidity 56%
Altimeter 30.06" Hg
Pressure 1018 hPa
Elevation 216
METAR KPPQ 190655Z AUTO 21009KT 10SM CLR 01/M07 A3006 RMK AO2 T00121070
Observed Flight Rules
Jan-19 @ 06:55 UTC
(21 minutes ago)
VFR
Wind Visibility
210° at 9 knots 10 miles
Clouds
  • Clear skies
Temperature Dewpoint
1°C / 34°F -7°C / 19°F
Humidity Altimeter Pressure
56% 30.06" Hg 1018 hPa